sensor_id;sensor_type;location;lat;lon;timestamp;P1;durP1;ratioP1;P2;durP2;ratioP2
74291;SDS011;62687;55.738;37.516;2022-10-01T00:01:50;12.43;;;8.77;;
74291;SDS011;62687;55.738;37.516;2022-10-01T00:04:34;14.05;;;9.43;;
74291;SDS011;62687;55.738;37.516;2022-10-01T00:07:22;14.25;;;9.43;;
74291;SDS011;62687;55.738;37.516;2022-10-01T00:10:07;15.18;;;10.07;;
74291;SDS011;62687;55.738;37.516;2022-10-01T00:12:53;14.38;;;8.93;;
74291;SDS011;62687;55.738;37.516;2022-10-01T00:15:38;17.17;;;9.98;;
74291;SDS011;62687;55.738;37.516;2022-10-01T00:18:22;15.07;;;10.38;;
74291;SDS011;62687;55.738;37.516;2022-10-01T00:21:07;13.70;;;7.85;;
74291;SDS011;62687;55.738;37.516;2022-10-01T00:23:56;15.50;;;9.27;;
74291;SDS011;62687;55.738;37.516;2022-10-01T00:26:45;14.18;;;8.93;;
74291;SDS011;62687;55.738;37.516;2022-10-01T00:29:30;14.60;;;8.68;;
74291;SDS011;62687;55.738;37.516;2022-10-01T00:32:14;15.18;;;8.25;;
74291;SDS011;62687;55.738;37.516;2022-10-01T00:34:59;12.13;;;8.30;;
74291;SDS011;62687;55.738;37.516;2022-10-01T00:37:43;13.25;;;8.50;;
74291;SDS011;62687;55.738;37.516;2022-10-01T00:40:30;11.38;;;8.40;;
74291;SDS011;62687;55.738;37.516;2022-10-01T00:43:24;14.02;;;9.13;;
74291;SDS011;62687;55.738;37.516;2022-10-01T00:46:17;12.23;;;8.57;;
74291;SDS011;62687;55.738;37.516;2022-10-01T00:49:06;13.98;;;8.38;;
74291;SDS011;62687;55.738;37.516;2022-10-01T00:51:59;14.07;;;8.00;;
74291;SDS011;62687;55.738;37.516;2022-10-01T00:55:02;13.07;;;7.88;;
74291;SDS011;62687;55.738;37.516;2022-10-01T00:57:50;15.63;;;8.30;;
74291;SDS011;62687;55.738;37.516;2022-10-01T01:00:34;14.38;;;9.43;;
74291;SDS011;62687;55.738;37.516;2022-10-01T01:03:20;14.43;;;9.45;;
74291;SDS011;62687;55.738;37.516;2022-10-01T01:06:04;18.00;;;9.75;;
74291;SDS011;62687;55.738;37.516;2022-10-01T01:08:50;15.85;;;8.77;;
74291;SDS011;62687;55.738;37.516;2022-10-01T01:11:40;17.25;;;10.63;;
74291;SDS011;62687;55.738;37.516;2022-10-01T01:14:48;20.60;;;12.32;;
74291;SDS011;62687;55.738;37.516;2022-10-01T01:30:24;27.63;;;16.00;;
74291;SDS011;62687;55.738;37.516;2022-10-01T01:33:10;25.30;;;15.18;;
74291;SDS011;62687;55.738;37.516;2022-10-01T01:36:00;27.50;;;14.95;;
74291;SDS011;62687;55.738;37.516;2022-10-01T01:38:49;30.40;;;16.52;;
74291;SDS011;62687;55.738;37.516;2022-10-01T01:41:37;32.35;;;16.58;;
74291;SDS011;62687;55.738;37.516;2022-10-01T01:44:35;27.52;;;14.70;;
74291;SDS011;62687;55.738;37.516;2022-10-01T01:47:22;23.77;;;14.15;;
74291;SDS011;62687;55.738;37.516;2022-10-01T01:50:14;25.60;;;14.30;;
74291;SDS011;62687;55.738;37.516;2022-10-01T01:52:59;25.85;;;12.65;;
74291;SDS011;62687;55.738;37.516;2022-10-01T01:58:32;26.95;;;14.48;;
74291;SDS011;62687;55.738;37.516;2022-10-01T02:01:33;29.10;;;15.52;;
74291;SDS011;62687;55.738;37.516;2022-10-01T02:04:24;25.10;;;13.90;;
74291;SDS011;62687;55.738;37.516;2022-10-01T02:10:14;25.05;;;13.40;;
74291;SDS011;62687;55.738;37.516;2022-10-01T02:13:23;21.23;;;12.45;;
74291;SDS011;62687;55.738;37.516;2022-10-01T02:25:33;20.48;;;12.05;;
74291;SDS011;62687;55.738;37.516;2022-10-01T02:28:23;20.48;;;10.73;;
74291;SDS011;62687;55.738;37.516;2022-10-01T02:31:07;19.83;;;11.25;;
74291;SDS011;62687;55.738;37.516;2022-10-01T02:33:55;18.50;;;11.70;;
74291;SDS011;62687;55.738;37.516;2022-10-01T02:36:43;16.80;;;10.20;;
74291;SDS011;62687;55.738;37.516;2022-10-01T02:39:28;16.60;;;8.50;;
74291;SDS011;62687;55.738;37.516;2022-10-01T02:42:15;16.85;;;8.68;;
74291;SDS011;62687;55.738;37.516;2022-10-01T02:45:01;15.52;;;8.90;;
74291;SDS011;62687;55.738;37.516;2022-10-01T02:47:55;18.17;;;9.20;;
74291;SDS011;62687;55.738;37.516;2022-10-01T02:50:48;15.43;;;9.48;;
74291;SDS011;62687;55.738;37.516;2022-10-01T02:56:29;15.15;;;7.68;;
74291;SDS011;62687;55.738;37.516;2022-10-01T02:59:32;12.25;;;7.60;;
74291;SDS011;62687;55.738;37.516;2022-10-01T03:02:17;13.15;;;7.70;;
74291;SDS011;62687;55.738;37.516;2022-10-01T03:05:03;15.45;;;7.68;;
74291;SDS011;62687;55.738;37.516;2022-10-01T03:07:48;12.95;;;7.13;;
74291;SDS011;62687;55.738;37.516;2022-10-01T03:10:32;13.35;;;6.95;;
74291;SDS011;62687;55.738;37.516;2022-10-01T03:13:17;12.52;;;7.13;;
74291;SDS011;62687;55.738;37.516;2022-10-01T03:16:02;13.07;;;7.22;;
74291;SDS011;62687;55.738;37.516;2022-10-01T03:18:46;10.18;;;6.18;;
74291;SDS011;62687;55.738;37.516;2022-10-01T03:21:30;10.18;;;5.70;;
74291;SDS011;62687;55.738;37.516;2022-10-01T03:24:14;10.57;;;6.03;;
74291;SDS011;62687;55.738;37.516;2022-10-01T03:26:58;10.32;;;5.60;;
74291;SDS011;62687;55.738;37.516;2022-10-01T03:29:43;11.27;;;5.93;;
74291;SDS011;62687;55.738;37.516;2022-10-01T03:35:11;11.30;;;6.47;;
74291;SDS011;62687;55.738;37.516;2022-10-01T03:37:56;10.50;;;6.78;;
74291;SDS011;62687;55.738;37.516;2022-10-01T03:43:24;12.15;;;6.40;;
74291;SDS011;62687;55.738;37.516;2022-10-01T03:46:11;13.35;;;6.90;;
74291;SDS011;62687;55.738;37.516;2022-10-01T03:48:56;9.63;;;6.25;;
74291;SDS011;62687;55.738;37.516;2022-10-01T03:51:43;11.70;;;6.90;;
74291;SDS011;62687;55.738;37.516;2022-10-01T03:54:28;9.88;;;6.38;;
74291;SDS011;62687;55.738;37.516;2022-10-01T03:57:14;10.52;;;6.57;;
74291;SDS011;62687;55.738;37.516;2022-10-01T03:59:58;10.40;;;6.43;;
74291;SDS011;62687;55.738;37.516;2022-10-01T04:02:42;11.60;;;7.15;;
74291;SDS011;62687;55.738;37.516;2022-10-01T04:05:27;12.43;;;6.40;;
74291;SDS011;62687;55.738;37.516;2022-10-01T04:08:11;15.82;;;6.82;;
74291;SDS011;62687;55.738;37.516;2022-10-01T04:10:56;13.90;;;6.60;;
74291;SDS011;62687;55.738;37.516;2022-10-01T04:13:42;8.95;;;6.70;;
74291;SDS011;62687;55.738;37.516;2022-10-01T04:16:26;12.23;;;7.40;;
74291;SDS011;62687;55.738;37.516;2022-10-01T04:19:13;13.27;;;8.02;;
74291;SDS011;62687;55.738;37.516;2022-10-01T04:21:57;12.45;;;6.95;;
74291;SDS011;62687;55.738;37.516;2022-10-01T04:24:42;13.82;;;7.50;;
74291;SDS011;62687;55.738;37.516;2022-10-01T04:27:26;13.52;;;7.97;;
74291;SDS011;62687;55.738;37.516;2022-10-01T04:30:10;15.15;;;7.47;;
74291;SDS011;62687;55.738;37.516;2022-10-01T04:32:54;22.15;;;9.32;;
74291;SDS011;62687;55.738;37.516;2022-10-01T04:35:38;15.98;;;8.48;;
74291;SDS011;62687;55.738;37.516;2022-10-01T04:41:08;16.92;;;8.60;;
74291;SDS011;62687;55.738;37.516;2022-10-01T04:43:52;20.60;;;9.38;;
74291;SDS011;62687;55.738;37.516;2022-10-01T04:46:36;19.20;;;9.18;;
74291;SDS011;62687;55.738;37.516;2022-10-01T04:49:20;18.75;;;8.90;;
74291;SDS011;62687;55.738;37.516;2022-10-01T04:52:05;20.20;;;9.60;;
74291;SDS011;62687;55.738;37.516;2022-10-01T04:54:49;18.17;;;9.65;;
74291;SDS011;62687;55.738;37.516;2022-10-01T04:57:35;20.90;;;8.85;;
74291;SDS011;62687;55.738;37.516;2022-10-01T05:00:20;22.00;;;9.73;;
74291;SDS011;62687;55.738;37.516;2022-10-01T05:03:07;17.73;;;10.13;;
74291;SDS011;62687;55.738;37.516;2022-10-01T05:05:51;22.25;;;10.90;;
74291;SDS011;62687;55.738;37.516;2022-10-01T05:08:35;29.10;;;13.52;;
74291;SDS011;62687;55.738;37.516;2022-10-01T05:11:20;28.67;;;14.15;;
74291;SDS011;62687;55.738;37.516;2022-10-01T05:14:04;31.30;;;15.23;;
74291;SDS011;62687;55.738;37.516;2022-10-01T05:16:48;34.67;;;16.73;;
74291;SDS011;62687;55.738;37.516;2022-10-01T05:19:33;35.40;;;17.35;;
74291;SDS011;62687;55.738;37.516;2022-10-01T05:22:17;51.53;;;19.25;;
74291;SDS011;62687;55.738;37.516;2022-10-01T05:25:02;39.97;;;19.80;;
74291;SDS011;62687;55.738;37.516;2022-10-01T05:27:46;43.55;;;18.42;;
74291;SDS011;62687;55.738;37.516;2022-10-01T05:30:31;40.47;;;17.73;;
74291;SDS011;62687;55.738;37.516;2022-10-01T05:33:15;39.58;;;19.20;;
74291;SDS011;62687;55.738;37.516;2022-10-01T05:36:00;29.65;;;14.27;;
74291;SDS011;62687;55.738;37.516;2022-10-01T05:38:46;33.30;;;16.25;;
74291;SDS011;62687;55.738;37.516;2022-10-01T05:41:31;32.83;;;15.60;;
74291;SDS011;62687;55.738;37.516;2022-10-01T05:44:15;30.15;;;15.25;;
74291;SDS011;62687;55.738;37.516;2022-10-01T05:46:59;31.85;;;16.15;;
74291;SDS011;62687;55.738;37.516;2022-10-01T05:49:44;35.42;;;16.15;;
74291;SDS011;62687;55.738;37.516;2022-10-01T05:52:29;38.85;;;16.35;;
74291;SDS011;62687;55.738;37.516;2022-10-01T05:55:13;37.97;;;16.95;;
74291;SDS011;62687;55.738;37.516;2022-10-01T05:57:58;39.95;;;17.92;;
74291;SDS011;62687;55.738;37.516;2022-10-01T06:00:50;42.38;;;17.73;;
74291;SDS011;62687;55.738;37.516;2022-10-01T06:03:34;46.17;;;19.05;;
74291;SDS011;62687;55.738;37.516;2022-10-01T06:06:21;41.22;;;18.88;;
74291;SDS011;62687;55.738;37.516;2022-10-01T06:09:06;46.10;;;18.45;;
74291;SDS011;62687;55.738;37.516;2022-10-01T06:11:50;47.63;;;19.15;;
74291;SDS011;62687;55.738;37.516;2022-10-01T06:14:34;40.63;;;18.02;;
74291;SDS011;62687;55.738;37.516;2022-10-01T06:17:18;47.47;;;18.45;;
74291;SDS011;62687;55.738;37.516;2022-10-01T06:20:03;40.05;;;17.40;;
74291;SDS011;62687;55.738;37.516;2022-10-01T06:22:54;45.72;;;19.17;;
74291;SDS011;62687;55.738;37.516;2022-10-01T06:25:40;40.15;;;17.23;;
74291;SDS011;62687;55.738;37.516;2022-10-01T06:28:26;40.22;;;16.75;;
74291;SDS011;62687;55.738;37.516;2022-10-01T06:31:10;36.28;;;16.65;;
74291;SDS011;62687;55.738;37.516;2022-10-01T06:33:54;42.10;;;17.85;;
74291;SDS011;62687;55.738;37.516;2022-10-01T06:36:38;44.60;;;18.42;;
74291;SDS011;62687;55.738;37.516;2022-10-01T06:39:22;41.55;;;17.92;;
74291;SDS011;62687;55.738;37.516;2022-10-01T06:42:07;38.30;;;17.92;;
74291;SDS011;62687;55.738;37.516;2022-10-01T06:44:51;41.33;;;19.05;;
74291;SDS011;62687;55.738;37.516;2022-10-01T06:47:35;46.95;;;19.77;;
74291;SDS011;62687;55.738;37.516;2022-10-01T06:50:20;44.65;;;19.45;;
74291;SDS011;62687;55.738;37.516;2022-10-01T06:53:04;39.58;;;18.00;;
74291;SDS011;62687;55.738;37.516;2022-10-01T06:55:49;38.90;;;17.85;;
74291;SDS011;62687;55.738;37.516;2022-10-01T06:58:33;39.92;;;17.17;;
74291;SDS011;62687;55.738;37.516;2022-10-01T07:01:17;34.22;;;17.27;;
74291;SDS011;62687;55.738;37.516;2022-10-01T07:04:03;38.67;;;17.50;;
74291;SDS011;62687;55.738;37.516;2022-10-01T07:06:47;35.35;;;17.60;;
74291;SDS011;62687;55.738;37.516;2022-10-01T07:09:31;36.90;;;18.40;;
74291;SDS011;62687;55.738;37.516;2022-10-01T07:12:15;41.72;;;19.08;;
74291;SDS011;62687;55.738;37.516;2022-10-01T07:15:00;35.58;;;17.70;;
74291;SDS011;62687;55.738;37.516;2022-10-01T07:17:45;38.85;;;18.85;;
74291;SDS011;62687;55.738;37.516;2022-10-01T07:20:32;38.35;;;17.80;;
74291;SDS011;62687;55.738;37.516;2022-10-01T07:23:18;32.20;;;17.45;;
74291;SDS011;62687;55.738;37.516;2022-10-01T07:26:03;35.85;;;17.13;;
74291;SDS011;62687;55.738;37.516;2022-10-01T07:28:48;32.38;;;16.95;;
74291;SDS011;62687;55.738;37.516;2022-10-01T07:31:32;28.15;;;16.08;;
74291;SDS011;62687;55.738;37.516;2022-10-01T07:34:17;29.80;;;17.35;;
74291;SDS011;62687;55.738;37.516;2022-10-01T07:37:02;32.20;;;17.65;;
74291;SDS011;62687;55.738;37.516;2022-10-01T07:39:46;28.88;;;17.25;;
74291;SDS011;62687;55.738;37.516;2022-10-01T07:42:31;31.50;;;17.63;;
74291;SDS011;62687;55.738;37.516;2022-10-01T07:45:15;27.15;;;15.95;;
74291;SDS011;62687;55.738;37.516;2022-10-01T07:48:00;29.42;;;17.45;;
74291;SDS011;62687;55.738;37.516;2022-10-01T07:50:45;37.58;;;19.85;;
74291;SDS011;62687;55.738;37.516;2022-10-01T07:53:30;30.77;;;17.67;;
74291;SDS011;62687;55.738;37.516;2022-10-01T07:56:14;34.33;;;19.00;;
74291;SDS011;62687;55.738;37.516;2022-10-01T07:58:58;42.58;;;21.00;;
74291;SDS011;62687;55.738;37.516;2022-10-01T08:01:42;44.75;;;22.08;;
74291;SDS011;62687;55.738;37.516;2022-10-01T08:04:26;44.38;;;23.20;;
74291;SDS011;62687;55.738;37.516;2022-10-01T08:07:30;48.08;;;22.33;;
74291;SDS011;62687;55.738;37.516;2022-10-01T08:10:15;41.83;;;21.83;;
74291;SDS011;62687;55.738;37.516;2022-10-01T08:13:00;47.50;;;22.67;;
74291;SDS011;62687;55.738;37.516;2022-10-01T08:15:51;40.70;;;21.92;;
74291;SDS011;62687;55.738;37.516;2022-10-01T08:18:37;45.72;;;22.77;;
74291;SDS011;62687;55.738;37.516;2022-10-01T08:21:22;43.13;;;23.85;;
74291;SDS011;62687;55.738;37.516;2022-10-01T08:24:08;46.13;;;24.13;;
74291;SDS011;62687;55.738;37.516;2022-10-01T08:26:53;38.80;;;21.90;;
74291;SDS011;62687;55.738;37.516;2022-10-01T08:29:40;43.13;;;23.10;;
74291;SDS011;62687;55.738;37.516;2022-10-01T08:32:26;43.20;;;22.98;;
74291;SDS011;62687;55.738;37.516;2022-10-01T08:35:10;38.03;;;20.80;;
74291;SDS011;62687;55.738;37.516;2022-10-01T08:37:59;41.90;;;21.95;;
74291;SDS011;62687;55.738;37.516;2022-10-01T08:40:48;39.72;;;21.27;;
74291;SDS011;62687;55.738;37.516;2022-10-01T08:43:34;42.05;;;23.48;;
74291;SDS011;62687;55.738;37.516;2022-10-01T08:46:21;42.00;;;22.90;;
74291;SDS011;62687;55.738;37.516;2022-10-01T08:49:15;40.80;;;22.05;;
74291;SDS011;62687;55.738;37.516;2022-10-01T08:55:15;36.55;;;21.50;;
74291;SDS011;62687;55.738;37.516;2022-10-01T08:58:05;37.97;;;20.90;;
74291;SDS011;62687;55.738;37.516;2022-10-01T09:00:52;43.25;;;22.30;;
74291;SDS011;62687;55.738;37.516;2022-10-01T09:03:37;38.22;;;19.88;;
74291;SDS011;62687;55.738;37.516;2022-10-01T09:06:23;39.15;;;20.42;;
74291;SDS011;62687;55.738;37.516;2022-10-01T09:13:08;35.45;;;21.05;;
74291;SDS011;62687;55.738;37.516;2022-10-01T09:15:38;36.38;;;21.10;;
74291;SDS011;62687;55.738;37.516;2022-10-01T09:21:59;37.22;;;20.13;;
74291;SDS011;62687;55.738;37.516;2022-10-01T09:27:43;43.42;;;22.02;;
74291;SDS011;62687;55.738;37.516;2022-10-01T09:30:28;37.08;;;22.02;;
74291;SDS011;62687;55.738;37.516;2022-10-01T09:33:16;37.95;;;20.33;;
74291;SDS011;62687;55.738;37.516;2022-10-01T09:42:11;39.13;;;21.35;;
74291;SDS011;62687;55.738;37.516;2022-10-01T09:44:56;35.10;;;19.48;;
74291;SDS011;62687;55.738;37.516;2022-10-01T09:47:40;36.22;;;20.77;;
74291;SDS011;62687;55.738;37.516;2022-10-01T09:50:37;36.50;;;21.40;;
74291;SDS011;62687;55.738;37.516;2022-10-01T09:53:29;35.78;;;21.30;;
74291;SDS011;62687;55.738;37.516;2022-10-01T09:56:26;32.70;;;18.88;;
74291;SDS011;62687;55.738;37.516;2022-10-01T09:59:44;32.20;;;19.80;;
74291;SDS011;62687;55.738;37.516;2022-10-01T10:02:39;36.40;;;20.35;;
74291;SDS011;62687;55.738;37.516;2022-10-01T10:05:26;33.50;;;20.23;;
74291;SDS011;62687;55.738;37.516;2022-10-01T10:11:04;30.55;;;20.05;;
74291;SDS011;62687;55.738;37.516;2022-10-01T10:13:52;32.60;;;19.77;;
74291;SDS011;62687;55.738;37.516;2022-10-01T10:16:40;33.92;;;20.80;;
74291;SDS011;62687;55.738;37.516;2022-10-01T10:19:29;33.97;;;21.05;;
74291;SDS011;62687;55.738;37.516;2022-10-01T10:22:24;32.60;;;20.52;;
74291;SDS011;62687;55.738;37.516;2022-10-01T10:25:13;35.05;;;19.88;;
74291;SDS011;62687;55.738;37.516;2022-10-01T10:28:14;30.50;;;19.92;;
74291;SDS011;62687;55.738;37.516;2022-10-01T10:31:02;32.22;;;18.98;;
74291;SDS011;62687;55.738;37.516;2022-10-01T10:36:47;35.65;;;20.80;;
74291;SDS011;62687;55.738;37.516;2022-10-01T10:39:34;37.70;;;20.48;;
74291;SDS011;62687;55.738;37.516;2022-10-01T10:42:20;35.20;;;21.45;;
74291;SDS011;62687;55.738;37.516;2022-10-01T10:45:13;34.20;;;20.60;;
74291;SDS011;62687;55.738;37.516;2022-10-01T10:48:00;34.80;;;21.13;;
74291;SDS011;62687;55.738;37.516;2022-10-01T10:50:47;36.83;;;21.77;;
74291;SDS011;62687;55.738;37.516;2022-10-01T10:53:42;36.75;;;22.08;;
74291;SDS011;62687;55.738;37.516;2022-10-01T10:56:28;40.03;;;21.83;;
74291;SDS011;62687;55.738;37.516;2022-10-01T10:59:12;38.33;;;22.20;;
74291;SDS011;62687;55.738;37.516;2022-10-01T11:01:57;36.17;;;20.23;;
74291;SDS011;62687;55.738;37.516;2022-10-01T11:04:43;34.88;;;21.80;;
74291;SDS011;62687;55.738;37.516;2022-10-01T11:07:28;36.03;;;20.67;;
74291;SDS011;62687;55.738;37.516;2022-10-01T11:21:40;21.42;;;12.82;;
74291;SDS011;62687;55.738;37.516;2022-10-01T11:25:02;20.83;;;12.20;;
74291;SDS011;62687;55.738;37.516;2022-10-01T11:31:10;20.88;;;12.27;;
74291;SDS011;62687;55.738;37.516;2022-10-01T11:34:31;22.38;;;12.55;;
74291;SDS011;62687;55.738;37.516;2022-10-01T11:37:25;21.10;;;13.50;;
74291;SDS011;62687;55.738;37.516;2022-10-01T11:40:34;24.70;;;14.02;;
74291;SDS011;62687;55.738;37.516;2022-10-01T11:43:27;24.90;;;13.48;;
74291;SDS011;62687;55.738;37.516;2022-10-01T11:52:35;22.90;;;14.55;;
74291;SDS011;62687;55.738;37.516;2022-10-01T11:55:27;23.90;;;13.77;;
74291;SDS011;62687;55.738;37.516;2022-10-01T11:58:41;26.52;;;13.57;;
74291;SDS011;62687;55.738;37.516;2022-10-01T12:07:28;27.33;;;14.55;;
74291;SDS011;62687;55.738;37.516;2022-10-01T12:10:39;25.52;;;12.95;;
74291;SDS011;62687;55.738;37.516;2022-10-01T12:13:29;23.20;;;13.15;;
74291;SDS011;62687;55.738;37.516;2022-10-01T12:16:29;28.85;;;14.60;;
74291;SDS011;62687;55.738;37.516;2022-10-01T12:22:26;30.10;;;13.27;;
74291;SDS011;62687;55.738;37.516;2022-10-01T12:25:14;24.20;;;12.73;;
74291;SDS011;62687;55.738;37.516;2022-10-01T12:28:11;24.15;;;12.23;;
74291;SDS011;62687;55.738;37.516;2022-10-01T12:31:05;16.90;;;11.77;;
74291;SDS011;62687;55.738;37.516;2022-10-01T12:40:24;20.25;;;13.10;;
74291;SDS011;62687;55.738;37.516;2022-10-01T12:43:21;16.40;;;10.27;;
74291;SDS011;62687;55.738;37.516;2022-10-01T12:46:27;19.42;;;12.63;;
74291;SDS011;62687;55.738;37.516;2022-10-01T12:49:34;23.25;;;12.95;;
74291;SDS011;62687;55.738;37.516;2022-10-01T13:08:41;21.58;;;11.18;;
74291;SDS011;62687;55.738;37.516;2022-10-01T13:11:51;26.05;;;12.32;;
74291;SDS011;62687;55.738;37.516;2022-10-01T13:14:40;16.85;;;10.10;;
74291;SDS011;62687;55.738;37.516;2022-10-01T13:20:27;13.20;;;8.88;;
74291;SDS011;62687;55.738;37.516;2022-10-01T13:26:08;12.88;;;8.68;;
74291;SDS011;62687;55.738;37.516;2022-10-01T13:32:00;14.50;;;7.72;;
74291;SDS011;62687;55.738;37.516;2022-10-01T13:34:46;11.13;;;7.38;;
74291;SDS011;62687;55.738;37.516;2022-10-01T13:37:37;14.10;;;7.55;;
74291;SDS011;62687;55.738;37.516;2022-10-01T13:40:24;12.13;;;6.75;;
74291;SDS011;62687;55.738;37.516;2022-10-01T13:43:20;11.73;;;7.15;;
74291;SDS011;62687;55.738;37.516;2022-10-01T13:46:10;10.68;;;6.75;;
74291;SDS011;62687;55.738;37.516;2022-10-01T13:48:55;11.57;;;6.68;;
74291;SDS011;62687;55.738;37.516;2022-10-01T13:51:43;11.68;;;6.85;;
74291;SDS011;62687;55.738;37.516;2022-10-01T13:57:33;12.48;;;7.10;;
74291;SDS011;62687;55.738;37.516;2022-10-01T14:00:21;16.08;;;7.32;;
74291;SDS011;62687;55.738;37.516;2022-10-01T14:06:16;11.95;;;6.90;;
74291;SDS011;62687;55.738;37.516;2022-10-01T14:15:25;12.48;;;6.95;;
74291;SDS011;62687;55.738;37.516;2022-10-01T14:18:38;13.68;;;7.25;;
74291;SDS011;62687;55.738;37.516;2022-10-01T14:21:29;11.88;;;7.20;;
74291;SDS011;62687;55.738;37.516;2022-10-01T14:24:24;14.27;;;7.43;;
74291;SDS011;62687;55.738;37.516;2022-10-01T14:27:41;11.38;;;7.07;;
74291;SDS011;62687;55.738;37.516;2022-10-01T14:36:54;12.82;;;7.22;;
74291;SDS011;62687;55.738;37.516;2022-10-01T14:39:39;18.65;;;7.15;;
74291;SDS011;62687;55.738;37.516;2022-10-01T14:42:24;13.05;;;7.50;;
74291;SDS011;62687;55.738;37.516;2022-10-01T14:45:14;11.05;;;7.05;;
74291;SDS011;62687;55.738;37.516;2022-10-01T14:48:01;12.57;;;7.13;;
74291;SDS011;62687;55.738;37.516;2022-10-01T14:50:58;11.10;;;6.70;;
74291;SDS011;62687;55.738;37.516;2022-10-01T14:53:44;13.02;;;7.18;;
74291;SDS011;62687;55.738;37.516;2022-10-01T14:56:28;11.90;;;6.03;;
74291;SDS011;62687;55.738;37.516;2022-10-01T14:59:17;11.15;;;6.57;;
74291;SDS011;62687;55.738;37.516;2022-10-01T15:02:18;12.10;;;7.03;;
74291;SDS011;62687;55.738;37.516;2022-10-01T15:05:10;9.52;;;6.20;;
74291;SDS011;62687;55.738;37.516;2022-10-01T15:08:10;11.18;;;6.75;;
74291;SDS011;62687;55.738;37.516;2022-10-01T15:10:55;12.95;;;6.90;;
74291;SDS011;62687;55.738;37.516;2022-10-01T15:13:44;12.60;;;7.18;;
74291;SDS011;62687;55.738;37.516;2022-10-01T15:16:29;13.55;;;6.63;;
74291;SDS011;62687;55.738;37.516;2022-10-01T15:19:16;10.88;;;6.68;;
74291;SDS011;62687;55.738;37.516;2022-10-01T15:22:04;11.70;;;7.88;;
74291;SDS011;62687;55.738;37.516;2022-10-01T15:24:51;11.43;;;7.38;;
74291;SDS011;62687;55.738;37.516;2022-10-01T15:27:39;11.40;;;7.00;;
74291;SDS011;62687;55.738;37.516;2022-10-01T15:30:24;13.45;;;7.45;;
74291;SDS011;62687;55.738;37.516;2022-10-01T15:33:19;12.13;;;7.95;;
74291;SDS011;62687;55.738;37.516;2022-10-01T15:36:11;11.50;;;6.90;;
74291;SDS011;62687;55.738;37.516;2022-10-01T15:38:59;13.55;;;7.57;;
74291;SDS011;62687;55.738;37.516;2022-10-01T15:41:51;15.57;;;8.38;;
74291;SDS011;62687;55.738;37.516;2022-10-01T15:44:40;12.23;;;7.88;;
74291;SDS011;62687;55.738;37.516;2022-10-01T15:47:32;13.55;;;7.80;;
74291;SDS011;62687;55.738;37.516;2022-10-01T15:50:21;14.40;;;7.57;;
74291;SDS011;62687;55.738;37.516;2022-10-01T15:53:14;11.63;;;7.57;;
74291;SDS011;62687;55.738;37.516;2022-10-01T15:56:08;12.30;;;6.95;;
74291;SDS011;62687;55.738;37.516;2022-10-01T15:59:01;14.48;;;7.45;;
74291;SDS011;62687;55.738;37.516;2022-10-01T16:01:53;15.73;;;6.65;;
74291;SDS011;62687;55.738;37.516;2022-10-01T16:04:37;16.65;;;7.22;;
74291;SDS011;62687;55.738;37.516;2022-10-01T16:07:26;12.52;;;7.85;;
74291;SDS011;62687;55.738;37.516;2022-10-01T16:10:17;13.73;;;7.90;;
74291;SDS011;62687;55.738;37.516;2022-10-01T16:16:28;12.07;;;7.57;;
74291;SDS011;62687;55.738;37.516;2022-10-01T16:19:21;14.90;;;8.38;;
74291;SDS011;62687;55.738;37.516;2022-10-01T16:22:26;13.02;;;8.18;;
74291;SDS011;62687;55.738;37.516;2022-10-01T16:28:18;14.18;;;9.10;;
74291;SDS011;62687;55.738;37.516;2022-10-01T16:31:15;15.60;;;8.63;;
74291;SDS011;62687;55.738;37.516;2022-10-01T16:33:59;18.35;;;9.00;;
74291;SDS011;62687;55.738;37.516;2022-10-01T16:36:43;17.00;;;8.30;;
74291;SDS011;62687;55.738;37.516;2022-10-01T16:39:27;13.77;;;9.32;;
74291;SDS011;62687;55.738;37.516;2022-10-01T16:42:16;15.35;;;9.65;;
74291;SDS011;62687;55.738;37.516;2022-10-01T16:45:10;18.85;;;10.32;;
74291;SDS011;62687;55.738;37.516;2022-10-01T16:47:58;18.30;;;9.48;;
74291;SDS011;62687;55.738;37.516;2022-10-01T16:50:43;18.52;;;10.68;;
74291;SDS011;62687;55.738;37.516;2022-10-01T16:53:28;24.85;;;11.48;;
74291;SDS011;62687;55.738;37.516;2022-10-01T16:56:13;18.70;;;11.23;;
74291;SDS011;62687;55.738;37.516;2022-10-01T17:01:42;18.92;;;10.93;;
74291;SDS011;62687;55.738;37.516;2022-10-01T17:04:27;20.83;;;11.02;;
74291;SDS011;62687;55.738;37.516;2022-10-01T17:07:14;27.70;;;12.35;;
74291;SDS011;62687;55.738;37.516;2022-10-01T17:09:58;20.25;;;12.23;;
74291;SDS011;62687;55.738;37.516;2022-10-01T17:12:42;23.17;;;12.10;;
74291;SDS011;62687;55.738;37.516;2022-10-01T17:15:28;23.42;;;12.30;;
74291;SDS011;62687;55.738;37.516;2022-10-01T17:18:13;24.25;;;13.18;;
74291;SDS011;62687;55.738;37.516;2022-10-01T17:20:57;26.27;;;13.30;;
74291;SDS011;62687;55.738;37.516;2022-10-01T17:23:42;24.90;;;13.15;;
74291;SDS011;62687;55.738;37.516;2022-10-01T17:26:29;22.30;;;13.38;;
74291;SDS011;62687;55.738;37.516;2022-10-01T17:29:13;21.45;;;13.68;;
74291;SDS011;62687;55.738;37.516;2022-10-01T17:31:57;25.70;;;13.88;;
74291;SDS011;62687;55.738;37.516;2022-10-01T17:34:42;23.08;;;13.55;;
74291;SDS011;62687;55.738;37.516;2022-10-01T17:37:27;28.58;;;13.60;;
74291;SDS011;62687;55.738;37.516;2022-10-01T17:42:56;29.58;;;13.32;;
74291;SDS011;62687;55.738;37.516;2022-10-01T17:45:41;22.65;;;13.05;;
74291;SDS011;62687;55.738;37.516;2022-10-01T17:48:27;23.92;;;13.77;;
74291;SDS011;62687;55.738;37.516;2022-10-01T17:51:11;23.05;;;13.68;;
74291;SDS011;62687;55.738;37.516;2022-10-01T17:53:59;23.27;;;13.38;;
74291;SDS011;62687;55.738;37.516;2022-10-01T17:56:45;28.67;;;15.15;;
74291;SDS011;62687;55.738;37.516;2022-10-01T17:59:30;27.48;;;15.57;;
74291;SDS011;62687;55.738;37.516;2022-10-01T18:02:14;26.63;;;14.18;;
74291;SDS011;62687;55.738;37.516;2022-10-01T18:05:02;24.17;;;14.30;;
74291;SDS011;62687;55.738;37.516;2022-10-01T18:07:50;26.50;;;14.85;;
74291;SDS011;62687;55.738;37.516;2022-10-01T18:10:35;20.00;;;13.48;;
74291;SDS011;62687;55.738;37.516;2022-10-01T18:13:19;25.65;;;14.68;;
74291;SDS011;62687;55.738;37.516;2022-10-01T18:16:04;27.88;;;14.90;;
74291;SDS011;62687;55.738;37.516;2022-10-01T18:18:57;22.67;;;14.45;;
74291;SDS011;62687;55.738;37.516;2022-10-01T18:21:42;23.33;;;13.88;;
74291;SDS011;62687;55.738;37.516;2022-10-01T18:24:27;25.00;;;14.40;;
74291;SDS011;62687;55.738;37.516;2022-10-01T18:27:12;22.58;;;13.52;;
74291;SDS011;62687;55.738;37.516;2022-10-01T18:29:57;22.67;;;13.73;;
74291;SDS011;62687;55.738;37.516;2022-10-01T18:32:42;21.92;;;13.75;;
74291;SDS011;62687;55.738;37.516;2022-10-01T18:35:30;24.08;;;13.82;;
74291;SDS011;62687;55.738;37.516;2022-10-01T18:38:26;22.48;;;13.82;;
74291;SDS011;62687;55.738;37.516;2022-10-01T18:41:18;21.23;;;13.18;;
74291;SDS011;62687;55.738;37.516;2022-10-01T18:44:11;23.63;;;13.55;;
74291;SDS011;62687;55.738;37.516;2022-10-01T18:47:10;20.00;;;14.10;;
74291;SDS011;62687;55.738;37.516;2022-10-01T19:29:57;11.27;;;7.82;;
74291;SDS011;62687;55.738;37.516;2022-10-01T19:35:43;12.73;;;7.40;;